Flight Track Log - Related Links

Times and Time Zones

All times are in EDT time to prevent confusion due to time zone crossing. See the ASQ4252 flight status page for this flight to view local times or setup timezone preferences in your user account.

Time Position Orientation Groundspeed Altitude Reporting Facility
EDT Latitude Longitude Course Direction KTS MPH feet Rate Location/Type
Fri 11:11:46 AM 36.2267 -94.3706 287° West 249 287 6,500  Level Kansas City Center
Fri 11:12:00 AM 36.5383 -94.3543 351° North  Level FlightAware Approximate
Fri 11:12:48 AM 36.3058 -94.3792 355° North 280 322 9,100  Level Kansas City Center
Fri 11:13:00 AM 36.6284 -94.3761 345° North  Level FlightAware Approximate
Fri 11:13:50 AM 36.3908 -94.3894 354° North 297 342 11,400  Level Kansas City Center
Fri 11:14:00 AM 36.7188 -94.3971 351° North  Level FlightAware Approximate
Fri 11:14:52 AM 36.4992 -94.4003 355° North 317 365 13,600  Level Kansas City Center
Fri 11:15:00 AM 36.8237 -94.4237 321° Northwest  Level FlightAware Approximate
Fri 11:15:54 AM 36.5975 -94.4108 355° North 341 392 15,100  Level Kansas City Center
Fri 11:16:00 AM 36.8813 -94.3297 60° Northeast  Level FlightAware Approximate
Fri 11:16:56 AM 36.6994 -94.4206 356° North 362 417 16,500  Level Kansas City Center
Fri 11:17:58 AM 36.8036 -94.4244 358° North 374 430 17,900 1,403 Climbing Kansas City Center
Fri 11:19:00 AM 36.8864 -94.3464 37° Northeast 387 445 19,400 1,548 Climbing Kansas City Center
Fri 11:20:02 AM 36.9514 -94.2067 60° Northeast 390 449 21,100 1,548 Climbing Kansas City Center
Fri 11:21:04 AM 37.0058 -94.0897 60° Northeast 390 449 22,600 1,500 Climbing Kansas City Center
Fri 11:22:06 AM 37.0617 -93.9736 59° Northeast 389 448 24,200 1,500 Climbing Kansas City Center
Fri 11:23:08 AM 37.1144 -93.8581 60° Northeast 385 443 25,700 1,548 Climbing Kansas City Center
Fri 11:24:10 AM 37.1717 -93.7342 60° Northeast 383 441 27,400 1,500 Climbing Kansas City Center
Fri 11:25:12 AM 37.2247 -93.6194 60° Northeast 381 438 28,800 1,306 Climbing Kansas City Center
Fri 11:26:14 AM 37.2783 -93.5028 60° Northeast 384 442 30,100 1,258 Climbing Kansas City Center
Fri 11:27:16 AM 37.3325 -93.3856 60° Northeast 387 445 31,400 1,161 Climbing Kansas City Center
Fri 11:28:18 AM 37.4078 -93.2894 45° Northeast 388 447 32,500 774 Climbing Kansas City Center
Fri 11:29:20 AM 37.5128 -93.1886 37° Northeast 393 452 33,000 242 Climbing Kansas City Center
Fri 11:30:22 AM 37.6097 -93.0994 36° Northeast 420 483 33,000  Level Kansas City Center
Fri 11:31:24 AM 37.7086 -93.0072 36° Northeast 436 502 33,000  Level Kansas City Center
Fri 11:32:26 AM 37.8058 -92.9164 36° Northeast 433 498 33,000  Level Kansas City Center
Fri 11:33:28 AM 37.9081 -92.8217 36° Northeast 448 516 33,000  Level Kansas City Center
Fri 11:34:30 AM 38.0086 -92.7261 37° Northeast 470 541 33,000  Level Kansas City Center
Fri 11:35:32 AM 38.1381 -92.6056 36° Northeast 480 552 33,000  Level Kansas City Center
Fri 11:36:34 AM 38.2358 -92.5147 36° Northeast 485 558 33,000  Level Kansas City Center
Fri 11:37:36 AM 38.3458 -92.4092 37° Northeast 488 562 33,000  Level Kansas City Center
Fri 11:38:38 AM 38.4783 -92.2822 37° Northeast 490 564 33,000  Level Kansas City Center
Fri 11:39:40 AM 38.5878 -92.1769 37° Northeast 490 564 33,000  Level Kansas City Center
Fri 11:40:43 AM 38.6969 -92.0722 37° Northeast 489 563 33,000  Level Kansas City Center
Fri 11:41:45 AM 38.8053 -91.9672 37° Northeast 486 559 33,000  Level Kansas City Center
Fri 11:42:47 AM 38.9119 -91.8636 37° Northeast 483 556 33,000  Level Kansas City Center
Fri 11:43:49 AM 39.0150 -91.7653 37° Northeast 468 539 33,000  Level Kansas City Center
Fri 11:44:52 AM 39.1258 -91.6556 38° Northeast 468 539 33,000  Level Kansas City Center
Fri 11:45:53 AM 39.2347 -91.5500 37° Northeast 481 554 33,000  Level Kansas City Center
Fri 11:46:55 AM 39.3453 -91.4411 37° Northeast 492 566 33,000  Level Kansas City Center
Fri 11:47:57 AM 39.4564 -91.3314 37° Northeast 499 574 33,000  Level Kansas City Center
Fri 11:48:59 AM 39.5667 -91.2225 37° Northeast 498 573 33,000  Level Kansas City Center
Fri 11:50:01 AM 39.6978 -91.0917 38° Northeast 497 572 33,000  Level Kansas City Center
Fri 11:51:03 AM 39.8019 -90.9869 38° Northeast 490 564 33,000  Level Kansas City Center
Fri 11:52:05 AM 39.9047 -90.8847 37° Northeast 486 559 33,000  Level Kansas City Center
Fri 11:53:07 AM 40.0108 -90.7775 38° Northeast 483 556 33,000  Level Kansas City Center
Fri 11:54:09 AM 40.1375 -90.6481 38° Northeast 482 555 33,000  Level Kansas City Center
Fri 11:55:11 AM 40.2433 -90.5403 38° Northeast 482 555 33,000  Level Kansas City Center
Fri 11:56:13 AM 40.3489 -90.4314 38° Northeast 482 555 33,000  Level Kansas City Center
Fri 11:57:15 AM 40.4550 -90.3236 38° Northeast 481 554 33,000  Level Kansas City Center
Fri 11:58:17 AM 40.5553 -90.2208 38° Northeast 478 550 33,000  Level Kansas City Center
Fri 11:59:19 AM 40.6819 -90.0897 38° Northeast 484 557 33,000 -97 Level Kansas City Center
Fri 12:00:21 PM 40.7894 -89.9806 38° Northeast 490 564 32,800 -1,551 Descending Kansas City Center
Fri 12:01:46 PM 40.9325 -89.8294 39° Northeast 484 557 29,200 -2,694 Descending Chicago Center
Fri 12:02:48 PM 41.0358 -89.7208 38° Northeast 483 556 26,200 -2,565 Descending Chicago Center
Fri 12:03:50 PM 41.1586 -89.5811 41° Northeast 485 558 23,900 -2,032 Descending Chicago Center
Fri 12:04:52 PM 41.2244 -89.4272 60° Northeast 480 552 22,000 -1,984 Descending Chicago Center
Fri 12:05:54 PM 41.2842 -89.2800 62° Northeast 463 533 19,800 -1,984 Descending Chicago Center
Fri 12:06:56 PM 41.3397 -89.1458 61° Northeast 426 490 17,900 -1,790 Descending Chicago Center
Fri 12:07:58 PM 41.4369 -89.0731 29° Northeast 406 467 16,100 -2,081 Descending Chicago Center
Fri 12:09:00 PM 41.4892 -88.9167 66° East 402 463 13,600 -2,323 Descending Chicago Center
Fri 12:10:02 PM 41.5047 -88.7744 82° East 390 449 11,300 -1,248 Descending Chicago Center
Fri 12:11:05 PM 41.5378 -88.6436 71° East 378 435 11,000 -144 Descending Chicago Center
Fri 12:12:07 PM 41.5858 -88.5211 62° Northeast 372 428 11,000  Level Chicago Center
Fri 12:13:09 PM 41.6436 -88.4064 56° Northeast 371 427 11,000 -435 Level Chicago Center
Fri 12:14:11 PM 41.7033 -88.3039 52° Northeast 345 397 10,100 -1,548 Descending Chicago Center
Fri 12:15:13 PM 41.7683 -88.1939 52° Northeast 315 362 7,800 -1,500 Descending Chicago Center
Fri 12:16:15 PM 41.8197 -88.1044 52° Northeast 304 350 7,000 -387 Descending Chicago Center
Fri 12:17:17 PM 41.8697 -88.0136 54° Northeast 302 348 7,000  Level Chicago Center
Fri 12:17:51 PM 41.8833 -87.9500 74° East 299 344 7,000  Level Chicago TRACON
Fri 12:18:57 PM 41.8833 -87.8333 90° East 291 335 7,000 -810 Level Chicago TRACON
Fri 12:19:57 PM 41.8833 -87.7333 90° East 272 313 5,300 -992 Descending Chicago TRACON
Fri 12:20:58 PM 41.8833 -87.6333 90° East 277 319 5,000 -149 Descending Chicago TRACON
Fri 12:21:58 PM 41.8833 -87.5167 90° East 276 318 5,000  Level Chicago TRACON
Fri 12:22:58 PM 41.8833 -87.4333 90° East 258 297 5,000  Level Chicago TRACON
Fri 12:23:29 PM 41.9122 -87.4014 39° Northeast 258 297 5,000  Level Chicago Center
Fri 12:24:32 PM 41.9731 -87.4147 351° North 239 275 5,000  Level Chicago Center
Fri 12:25:34 PM 41.9678 -87.4806 264° West 201 231 5,000  Level Chicago Center
Fri 12:26:36 PM 41.9689 -87.5675 271° West 193 222 5,000 -387 Level Chicago Center
Fri 12:27:38 PM 41.9692 -87.6386 270° West 193 222 4,200 -823 Descending Chicago Center
Fri 12:28:40 PM 41.9689 -87.7061 270° West 189 217 3,300 -871 Descending Chicago Center

Login

Don't have an account? Register now (free) for customized features, flight alerts, and more!